createdAt,value
2016-11-09T00:00:34.593Z,16
2016-11-09T00:01:45.038Z,12
2016-11-09T00:02:55.508Z,12
2016-11-09T00:04:05.943Z,12
2016-11-09T00:05:16.387Z,12
2016-11-09T00:06:27.024Z,12
2016-11-09T00:07:37.500Z,12
2016-11-09T00:08:47.936Z,12
2016-11-09T00:10:12.916Z,12
2016-11-09T00:11:23.352Z,12
2016-11-09T00:12:33.794Z,12
2016-11-09T00:13:44.236Z,12
2016-11-09T00:16:19.661Z,16
2016-11-09T00:17:30.202Z,16
2016-11-09T00:18:41.132Z,16
2016-11-09T00:19:51.575Z,16
2016-11-09T00:21:02.019Z,16
2016-11-09T00:22:12.465Z,16
2016-11-09T00:23:22.907Z,16
2016-11-09T00:24:47.812Z,16
2016-11-09T00:25:58.137Z,16
2016-11-09T00:27:08.455Z,16
2016-11-09T00:28:18.777Z,12
2016-11-09T00:29:29.098Z,12
2016-11-09T00:30:39.415Z,12
2016-11-09T00:31:49.771Z,16
2016-11-09T00:33:00.194Z,12
2016-11-09T00:34:10.516Z,12
2016-11-09T00:35:20.834Z,16
2016-11-09T00:36:31.158Z,16
2016-11-09T00:37:41.478Z,16
2016-11-09T00:38:51.801Z,12
2016-11-09T00:40:16.688Z,12
2016-11-09T00:41:27.011Z,12
2016-11-09T00:42:37.364Z,12
2016-11-09T00:43:47.683Z,16
2016-11-09T00:44:58.007Z,12
2016-11-09T00:46:22.898Z,12
2016-11-09T00:47:33.225Z,12
2016-11-09T00:48:43.545Z,12
2016-11-09T00:50:08.909Z,12
2016-11-09T00:51:19.253Z,12
2016-11-09T00:52:29.574Z,12
2016-11-09T00:53:39.893Z,12
2016-11-09T00:54:50.223Z,12
2016-11-09T00:56:00.727Z,12
2016-11-09T00:57:11.667Z,12
2016-11-09T00:58:22.138Z,16
2016-11-09T00:59:32.596Z,12
2016-11-09T01:00:43.045Z,12
2016-11-09T01:01:53.501Z,12
2016-11-09T01:03:03.952Z,12
2016-11-09T01:04:14.460Z,12
2016-11-09T01:05:24.934Z,8
2016-11-09T01:06:35.417Z,12
2016-11-09T01:07:46.107Z,12
2016-11-09T01:09:11.101Z,12
2016-11-09T01:10:36.585Z,12
2016-11-09T01:12:01.570Z,12
2016-11-09T01:13:12.014Z,12
2016-11-09T01:14:22.452Z,8
2016-11-09T01:15:32.922Z,12
2016-11-09T01:16:43.371Z,12
2016-11-09T01:18:08.355Z,12
2016-11-09T01:19:18.792Z,12
2016-11-09T01:20:29.741Z,12
2016-11-09T01:21:40.179Z,12
2016-11-09T01:23:05.198Z,12
2016-11-09T01:24:15.838Z,8
2016-11-09T01:26:51.266Z,12
2016-11-09T01:28:01.745Z,12
2016-11-09T01:29:12.179Z,12
2016-11-09T01:30:22.620Z,12
2016-11-09T01:31:33.063Z,12
2016-11-09T01:32:43.531Z,12
2016-11-09T01:33:53.972Z,12
2016-11-09T01:35:04.414Z,12
2016-11-09T01:36:14.857Z,8
2016-11-09T01:37:25.301Z,16
2016-11-09T01:38:35.745Z,16
2016-11-09T01:39:46.223Z,12
2016-11-09T01:40:56.664Z,16
2016-11-09T01:42:07.104Z,12
2016-11-09T01:43:17.541Z,12
2016-11-09T01:44:27.981Z,12
2016-11-09T01:45:38.425Z,16
2016-11-09T01:46:48.868Z,8
2016-11-09T01:47:59.307Z,12
2016-11-09T01:49:09.749Z,16
2016-11-09T01:50:20.187Z,12
2016-11-09T01:51:30.626Z,16
2016-11-09T01:52:41.067Z,12
2016-11-09T01:53:51.504Z,12
2016-11-09T01:55:01.946Z,12
2016-11-09T01:56:26.929Z,12
2016-11-09T01:57:37.496Z,12
2016-11-09T01:58:47.936Z,4
2016-11-09T01:59:58.370Z,12
2016-11-09T02:01:08.848Z,4
2016-11-09T02:02:19.292Z,16
2016-11-09T02:03:29.931Z,12
2016-11-09T02:04:40.392Z,12
2016-11-09T02:05:50.835Z,12
2016-11-09T02:07:01.271Z,12
2016-11-09T02:08:11.714Z,12
2016-11-09T02:09:22.360Z,12
2016-11-09T02:10:32.864Z,4
2016-11-09T02:11:43.302Z,12
2016-11-09T02:12:53.740Z,12
2016-11-09T02:14:04.178Z,12
2016-11-09T02:15:14.855Z,12
2016-11-09T02:16:25.289Z,12
2016-11-09T02:17:35.735Z,12
2016-11-09T02:19:00.715Z,12
2016-11-09T02:20:11.254Z,12
2016-11-09T02:21:21.698Z,12
2016-11-09T02:22:32.133Z,12
2016-11-09T02:23:42.573Z,12
2016-11-09T02:24:53.016Z,4
2016-11-09T02:26:18.020Z,4
2016-11-09T02:27:28.466Z,12
2016-11-09T02:28:53.451Z,16
2016-11-09T02:30:03.892Z,12
2016-11-09T02:31:29.569Z,12
2016-11-09T02:32:40.008Z,12
2016-11-09T02:33:50.491Z,12
2016-11-09T02:35:00.896Z,12
2016-11-09T02:36:11.321Z,12
2016-11-09T02:37:21.641Z,12
2016-11-09T02:38:31.998Z,12
2016-11-09T02:39:42.321Z,4
2016-11-09T02:40:52.642Z,12
2016-11-09T02:42:03.079Z,12
2016-11-09T02:43:13.411Z,12
2016-11-09T02:44:23.733Z,12
2016-11-09T02:45:34.056Z,12
2016-11-09T02:46:44.375Z,12
2016-11-09T02:47:54.895Z,12
2016-11-09T02:49:05.217Z,12
2016-11-09T02:50:15.550Z,12
2016-11-09T02:51:25.875Z,12
2016-11-09T02:52:36.196Z,12
2016-11-09T02:53:46.519Z,12
2016-11-09T02:54:56.841Z,12
2016-11-09T02:56:07.161Z,12
2016-11-09T02:57:17.480Z,12
2016-11-09T02:58:27.800Z,12
2016-11-09T02:59:38.218Z,12
2016-11-09T03:02:13.435Z,12
2016-11-09T03:03:24.232Z,12
2016-11-09T03:04:34.652Z,12
2016-11-09T03:05:44.974Z,12
2016-11-09T03:06:55.300Z,4
2016-11-09T03:08:05.621Z,16
2016-11-09T03:09:15.946Z,12
2016-11-09T03:10:26.275Z,12
2016-11-09T03:11:36.603Z,12
2016-11-09T03:12:46.998Z,12
2016-11-09T03:13:57.894Z,12
2016-11-09T03:16:33.369Z,12
2016-11-09T03:17:43.797Z,12
2016-11-09T03:18:54.213Z,12
2016-11-09T03:20:04.624Z,12
2016-11-09T03:21:15.139Z,12
2016-11-09T03:22:25.555Z,8
2016-11-09T03:23:35.970Z,8
2016-11-09T03:24:46.381Z,12
2016-11-09T03:25:56.801Z,12
2016-11-09T03:27:07.215Z,12
2016-11-09T03:28:17.628Z,12
2016-11-09T03:29:28.043Z,12
2016-11-09T03:30:38.454Z,12
2016-11-09T03:31:48.869Z,12
2016-11-09T03:32:59.482Z,12
2016-11-09T03:34:09.895Z,12
2016-11-09T03:35:20.307Z,12
2016-11-09T03:36:30.723Z,4
2016-11-09T03:39:06.196Z,16
2016-11-09T03:40:16.609Z,16
2016-11-09T03:41:27.020Z,12
2016-11-09T03:42:37.462Z,12
2016-11-09T03:43:47.963Z,12
2016-11-09T03:45:13.018Z,12
2016-11-09T03:46:23.551Z,12
2016-11-09T03:47:34.084Z,12
2016-11-09T03:48:44.616Z,12
2016-11-09T03:49:55.149Z,12
2016-11-09T03:51:05.676Z,16
2016-11-09T03:52:16.211Z,16
2016-11-09T03:53:26.775Z,12
2016-11-09T03:54:37.416Z,12
2016-11-09T03:55:48.448Z,12
2016-11-09T03:56:58.981Z,12
2016-11-09T03:58:09.436Z,12
2016-11-09T03:59:19.879Z,12
2016-11-09T04:00:30.514Z,12
2016-11-09T04:01:40.950Z,12
2016-11-09T04:02:51.394Z,12
2016-11-09T04:04:01.830Z,16
2016-11-09T04:05:12.272Z,12
2016-11-09T04:06:22.814Z,12
2016-11-09T04:07:33.287Z,12
2016-11-09T04:08:43.728Z,12
2016-11-09T04:09:54.167Z,12
2016-11-09T04:11:04.608Z,12
2016-11-09T04:12:15.535Z,4
2016-11-09T04:13:26.176Z,16
2016-11-09T04:14:36.612Z,16
2016-11-09T04:15:47.050Z,12
2016-11-09T04:16:57.494Z,12
2016-11-09T04:18:07.935Z,12
2016-11-09T04:19:18.411Z,12
2016-11-09T04:20:28.846Z,12
2016-11-09T04:21:39.286Z,12
2016-11-09T04:22:50.225Z,12
2016-11-09T04:24:00.660Z,12
2016-11-09T04:25:11.099Z,12
2016-11-09T04:26:21.535Z,12
2016-11-09T04:27:31.970Z,4
2016-11-09T04:28:42.419Z,4
2016-11-09T04:29:52.862Z,12
2016-11-09T04:31:03.306Z,12
2016-11-09T04:32:13.745Z,12
2016-11-09T04:33:24.214Z,12
2016-11-09T04:34:34.672Z,12
2016-11-09T04:35:45.702Z,12
2016-11-09T04:36:56.140Z,12
2016-11-09T04:38:07.069Z,12
2016-11-09T04:39:17.507Z,12
2016-11-09T04:40:27.965Z,12
2016-11-09T04:41:39.002Z,12
2016-11-09T04:42:49.446Z,12
2016-11-09T04:43:59.891Z,4
2016-11-09T04:45:10.328Z,4
2016-11-09T04:46:20.764Z,16
2016-11-09T04:47:31.209Z,16
2016-11-09T04:48:41.652Z,12
2016-11-09T04:49:52.015Z,12
2016-11-09T04:51:02.334Z,12
2016-11-09T04:52:12.658Z,12
2016-11-09T04:53:23.455Z,12
2016-11-09T04:54:33.775Z,12
2016-11-09T04:55:44.106Z,12
2016-11-09T04:56:54.428Z,12
2016-11-09T04:58:04.749Z,12
2016-11-09T04:59:15.174Z,12
2016-11-09T05:00:54.667Z,12
2016-11-09T05:02:04.987Z,4
2016-11-09T05:03:15.327Z,4
2016-11-09T05:04:25.778Z,12
2016-11-09T05:05:36.100Z,12
2016-11-09T05:06:46.425Z,12
2016-11-09T05:07:56.745Z,12
2016-11-09T05:09:07.069Z,12
2016-11-09T05:10:17.394Z,12
2016-11-09T05:11:42.286Z,12
2016-11-09T05:12:52.647Z,12
2016-11-09T05:14:02.967Z,12
2016-11-09T05:15:13.290Z,12
2016-11-09T05:16:23.611Z,12
2016-11-09T05:17:33.928Z,4
2016-11-09T05:18:44.255Z,16
2016-11-09T05:19:54.575Z,16
2016-11-09T05:21:04.896Z,12
2016-11-09T05:22:15.258Z,4
2016-11-09T05:23:25.580Z,4
2016-11-09T05:24:35.897Z,12
2016-11-09T05:25:46.221Z,16
2016-11-09T05:26:56.642Z,16
2016-11-09T05:28:06.969Z,12
2016-11-09T05:29:17.287Z,12
2016-11-09T05:30:27.637Z,12
2016-11-09T05:31:37.995Z,12
2016-11-09T05:34:13.203Z,4
2016-11-09T05:35:23.523Z,16
2016-11-09T05:36:33.842Z,12
2016-11-09T05:37:44.160Z,12
2016-11-09T05:38:54.478Z,12
2016-11-09T05:40:04.810Z,12
2016-11-09T05:41:15.130Z,12
2016-11-09T05:42:25.446Z,12
2016-11-09T05:43:36.342Z,12
2016-11-09T05:44:46.667Z,12
2016-11-09T05:45:56.987Z,12
2016-11-09T05:47:07.304Z,12
2016-11-09T05:48:18.105Z,12
2016-11-09T05:49:28.427Z,12
2016-11-09T05:50:38.752Z,12
2016-11-09T05:51:49.075Z,4
2016-11-09T05:52:59.392Z,4
2016-11-09T05:54:09.717Z,16
2016-11-09T05:55:20.138Z,16
2016-11-09T05:56:30.467Z,12
2016-11-09T05:57:40.789Z,12
2016-11-09T05:58:51.109Z,12
2016-11-09T06:00:01.432Z,12
2016-11-09T06:01:11.952Z,12
2016-11-09T06:02:36.839Z,12
2016-11-09T06:04:01.733Z,12
2016-11-09T06:05:12.924Z,12
2016-11-09T06:06:23.248Z,12
2016-11-09T06:07:33.566Z,12
2016-11-09T06:08:43.887Z,12
2016-11-09T06:09:54.206Z,12
2016-11-09T06:12:29.617Z,12
2016-11-09T06:13:40.419Z,12
2016-11-09T06:14:50.739Z,12
2016-11-09T06:16:01.059Z,12
2016-11-09T06:17:11.382Z,12
2016-11-09T06:18:21.705Z,12
2016-11-09T06:19:32.034Z,12
2016-11-09T06:20:42.355Z,12
2016-11-09T06:22:07.443Z,12
2016-11-09T06:23:17.761Z,12
2016-11-09T06:24:28.084Z,16
2016-11-09T06:25:38.404Z,16
2016-11-09T06:26:48.724Z,8
2016-11-09T06:27:59.046Z,8
2016-11-09T06:29:09.370Z,8
2016-11-09T06:30:34.317Z,8
2016-11-09T06:31:44.786Z,16
2016-11-09T06:32:55.223Z,16
2016-11-09T06:34:05.663Z,12
2016-11-09T06:35:16.104Z,12
2016-11-09T06:36:26.542Z,12
2016-11-09T06:37:36.985Z,12
2016-11-09T06:38:47.424Z,12
2016-11-09T06:39:57.895Z,12
2016-11-09T06:41:08.347Z,12
2016-11-09T06:42:33.327Z,12
2016-11-09T06:43:58.543Z,12
2016-11-09T06:45:09.014Z,4
2016-11-09T06:46:19.448Z,4
2016-11-09T06:47:29.886Z,4
2016-11-09T06:48:40.367Z,16
2016-11-09T06:49:50.906Z,12
2016-11-09T06:51:01.833Z,12
2016-11-09T06:52:12.270Z,12
2016-11-09T06:53:22.709Z,12
2016-11-09T06:54:33.148Z,12
2016-11-09T06:55:43.691Z,12
2016-11-09T06:56:54.126Z,12
2016-11-09T06:58:19.110Z,12
2016-11-09T06:59:29.551Z,12
2016-11-09T07:00:39.988Z,12
2016-11-09T07:01:50.424Z,12
2016-11-09T07:03:00.864Z,4
2016-11-09T07:04:11.220Z,4
2016-11-09T07:05:21.542Z,12
2016-11-09T07:06:31.863Z,12
2016-11-09T07:07:42.184Z,12
2016-11-09T07:08:52.506Z,12
2016-11-09T07:10:02.859Z,12
2016-11-09T07:11:13.217Z,12
2016-11-09T07:12:23.539Z,12
2016-11-09T07:13:34.341Z,4
2016-11-09T07:14:44.659Z,4
2016-11-09T07:15:54.975Z,4
2016-11-09T07:17:05.291Z,16
2016-11-09T07:18:15.816Z,12
2016-11-09T07:19:26.139Z,4
2016-11-09T07:20:36.473Z,4
2016-11-09T07:21:46.801Z,4
2016-11-09T07:22:57.123Z,16
2016-11-09T07:24:22.209Z,12
2016-11-09T07:25:32.532Z,12
2016-11-09T07:26:42.855Z,12
2016-11-09T07:27:53.172Z,12
2016-11-09T07:29:03.496Z,12
2016-11-09T07:30:13.819Z,12
2016-11-09T07:31:24.616Z,8
2016-11-09T07:32:34.942Z,16
2016-11-09T07:34:14.399Z,12
2016-11-09T07:35:24.718Z,16
2016-11-09T07:36:35.390Z,12
2016-11-09T07:37:45.793Z,12
2016-11-09T07:38:56.228Z,12
2016-11-09T07:40:06.697Z,12
2016-11-09T07:41:17.137Z,12
2016-11-09T07:42:27.575Z,12
2016-11-09T07:45:03.095Z,12
2016-11-09T07:46:13.571Z,12
2016-11-09T07:47:24.041Z,16
2016-11-09T07:48:49.022Z,12
2016-11-09T07:49:59.463Z,12
2016-11-09T07:51:24.447Z,12
2016-11-09T07:52:49.430Z,12
2016-11-09T07:53:59.864Z,16
2016-11-09T07:55:10.502Z,12
2016-11-09T07:56:20.938Z,16
2016-11-09T07:57:31.876Z,16
2016-11-09T07:58:42.310Z,12
2016-11-09T07:59:52.753Z,12
2016-11-09T08:01:03.287Z,12
2016-11-09T08:02:13.731Z,16
2016-11-09T08:03:24.168Z,16
2016-11-09T08:04:34.616Z,16
2016-11-09T08:05:45.054Z,16
2016-11-09T08:06:55.591Z,16
2016-11-09T08:08:06.031Z,16
2016-11-09T08:09:16.468Z,16
2016-11-09T08:10:26.917Z,20
2016-11-09T08:11:51.897Z,20
2016-11-09T08:13:02.336Z,24
2016-11-09T08:14:13.261Z,12
2016-11-09T08:15:38.243Z,16
2016-11-09T08:16:48.684Z,20
2016-11-09T08:17:59.319Z,24
2016-11-09T08:19:09.756Z,24
2016-11-09T08:20:34.737Z,28
2016-11-09T08:21:45.176Z,36
2016-11-09T08:22:55.609Z,36
2016-11-09T08:24:06.049Z,44
2016-11-09T08:25:16.487Z,52
2016-11-09T08:26:27.452Z,56
2016-11-09T08:27:37.892Z,64
2016-11-09T08:28:48.332Z,68
2016-11-09T08:29:58.774Z,72
2016-11-09T08:31:09.705Z,76
2016-11-09T08:32:20.145Z,76
2016-11-09T08:33:30.583Z,84
2016-11-09T08:34:55.566Z,92
2016-11-09T08:36:06.000Z,100
2016-11-09T08:37:16.442Z,104
2016-11-09T08:38:26.912Z,104
2016-11-09T08:39:37.553Z,120
2016-11-09T08:40:48.028Z,128
2016-11-09T08:41:58.472Z,136
2016-11-09T08:43:08.913Z,152
2016-11-09T08:44:19.267Z,160
2016-11-09T08:45:29.741Z,160
2016-11-09T08:46:40.065Z,168
2016-11-09T08:47:50.385Z,176
2016-11-09T08:49:00.708Z,188
2016-11-09T08:50:11.063Z,192
2016-11-09T08:51:21.484Z,196
2016-11-09T08:52:32.280Z,204
2016-11-09T08:54:11.740Z,212
2016-11-09T08:55:22.070Z,216
2016-11-09T08:56:32.493Z,232
2016-11-09T08:57:57.380Z,240
2016-11-09T08:59:07.703Z,240
2016-11-09T09:00:18.029Z,232
2016-11-09T09:01:29.242Z,228
2016-11-09T09:02:39.602Z,208
2016-11-09T09:03:50.395Z,208
2016-11-09T09:05:00.718Z,204
2016-11-09T09:06:11.041Z,204
2016-11-09T09:07:36.033Z,212
2016-11-09T09:08:46.355Z,220
2016-11-09T09:09:56.669Z,236
2016-11-09T09:11:06.995Z,248
2016-11-09T09:12:17.799Z,268
2016-11-09T09:13:28.294Z,280
2016-11-09T09:14:53.289Z,312
2016-11-09T09:16:18.251Z,332
2016-11-09T09:17:28.663Z,356
2016-11-09T09:18:39.929Z,368
2016-11-09T09:19:50.459Z,372
2016-11-09T09:21:00.987Z,372
2016-11-09T09:22:11.517Z,360
2016-11-09T09:24:47.309Z,340
2016-11-09T09:25:57.865Z,324
2016-11-09T09:27:08.431Z,312
2016-11-09T09:28:18.962Z,304
2016-11-09T09:29:29.589Z,292
2016-11-09T09:30:40.126Z,280
2016-11-09T09:31:50.658Z,272
2016-11-09T09:33:15.716Z,252
2016-11-09T09:34:26.457Z,232
2016-11-09T09:35:37.026Z,216
2016-11-09T09:36:47.553Z,220
2016-11-09T09:37:58.080Z,228
2016-11-09T09:39:09.110Z,244
2016-11-09T09:40:19.649Z,264
2016-11-09T09:41:30.676Z,280
2016-11-09T09:42:41.213Z,292
2016-11-09T09:43:51.749Z,300
2016-11-09T09:45:02.281Z,304
2016-11-09T09:46:12.907Z,304
2016-11-09T09:47:23.440Z,312
2016-11-09T09:48:33.969Z,312
2016-11-09T09:49:44.500Z,312
2016-11-09T09:50:55.027Z,316
2016-11-09T09:52:05.667Z,316
2016-11-09T09:53:16.198Z,320
2016-11-09T09:54:26.724Z,320
2016-11-09T09:55:37.257Z,324
2016-11-09T09:56:47.795Z,328
2016-11-09T09:57:58.525Z,332
2016-11-09T09:59:23.580Z,332
2016-11-09T10:00:34.113Z,328
2016-11-09T10:01:59.167Z,332
2016-11-09T10:03:09.696Z,328
2016-11-09T10:04:20.231Z,344
2016-11-09T10:05:30.761Z,348
2016-11-09T10:06:41.290Z,348
2016-11-09T10:07:51.828Z,356
2016-11-09T10:09:02.559Z,364
2016-11-09T10:10:13.093Z,368
2016-11-09T10:11:23.780Z,376
2016-11-09T10:12:34.311Z,384
2016-11-09T10:13:44.844Z,392
2016-11-09T10:14:55.476Z,388
2016-11-09T10:16:06.005Z,392
2016-11-09T10:17:16.532Z,376
2016-11-09T10:18:27.063Z,380
2016-11-09T10:19:37.596Z,384
2016-11-09T10:20:48.132Z,376
2016-11-09T10:21:58.695Z,372
2016-11-09T10:23:09.237Z,392
2016-11-09T10:24:19.765Z,400
2016-11-09T10:25:30.294Z,404
2016-11-09T10:26:41.027Z,400
2016-11-09T10:27:52.063Z,396
2016-11-09T10:29:02.637Z,396
2016-11-09T10:30:13.196Z,392
2016-11-09T10:31:23.736Z,388
2016-11-09T10:32:34.304Z,392
2016-11-09T10:33:45.326Z,360
2016-11-09T10:34:55.863Z,384
2016-11-09T10:36:06.417Z,412
2016-11-09T10:37:16.949Z,412
2016-11-09T10:38:27.578Z,416
2016-11-09T10:39:38.116Z,420
2016-11-09T10:40:48.649Z,424
2016-11-09T10:41:59.180Z,436
2016-11-09T10:43:09.643Z,432
2016-11-09T10:44:34.622Z,420
2016-11-09T10:45:59.611Z,424
2016-11-09T10:47:10.540Z,428
2016-11-09T10:48:20.986Z,436
2016-11-09T10:49:45.972Z,440
2016-11-09T10:50:56.412Z,444
2016-11-09T10:52:06.849Z,444
2016-11-09T10:53:17.311Z,444
2016-11-09T10:54:27.956Z,448
2016-11-09T10:55:38.402Z,452
2016-11-09T10:56:48.844Z,452
2016-11-09T10:58:13.837Z,456
2016-11-09T10:59:24.277Z,460
2016-11-09T11:00:34.816Z,468
2016-11-09T11:01:45.264Z,468
2016-11-09T11:03:10.247Z,468
2016-11-09T11:04:21.179Z,468
2016-11-09T11:05:31.683Z,480
2016-11-09T11:06:43.913Z,484
2016-11-09T11:07:54.860Z,492
2016-11-09T11:09:05.297Z,492
2016-11-09T11:10:15.732Z,504
2016-11-09T11:11:26.421Z,512
2016-11-09T11:12:36.858Z,516
2016-11-09T11:14:01.839Z,528
2016-11-09T11:15:12.285Z,536
2016-11-09T11:16:22.822Z,552
2016-11-09T11:17:33.259Z,564
2016-11-09T11:18:44.217Z,504
2016-11-09T11:19:54.658Z,568
2016-11-09T11:21:05.154Z,584
2016-11-09T11:22:15.797Z,556
2016-11-09T11:23:26.236Z,548
2016-11-09T11:24:36.673Z,548
2016-11-09T11:25:47.118Z,572
2016-11-09T11:27:12.102Z,576
2016-11-09T11:28:22.541Z,576
2016-11-09T11:29:32.977Z,580
2016-11-09T11:30:43.418Z,596
2016-11-09T11:31:53.775Z,600
2016-11-09T11:33:04.306Z,604
2016-11-09T11:34:14.634Z,608
2016-11-09T11:35:24.985Z,596
2016-11-09T11:36:35.307Z,640
2016-11-09T11:37:45.662Z,648
2016-11-09T11:39:10.557Z,668
2016-11-09T11:40:20.886Z,664
2016-11-09T11:41:31.211Z,668
2016-11-09T11:42:56.133Z,696
2016-11-09T11:44:06.465Z,736
2016-11-09T11:45:31.356Z,724
2016-11-09T11:46:41.673Z,724
2016-11-09T11:48:06.561Z,752
2016-11-09T11:49:16.920Z,760
2016-11-09T11:50:27.245Z,768
2016-11-09T11:51:37.569Z,760
2016-11-09T11:52:47.895Z,816
2016-11-09T11:53:58.220Z,836
2016-11-09T11:55:23.311Z,864
2016-11-09T11:56:33.636Z,892
2016-11-09T11:57:43.963Z,940
2016-11-09T11:58:54.287Z,956
2016-11-09T12:00:04.623Z,1004
2016-11-09T12:01:14.985Z,1044
2016-11-09T12:02:25.304Z,1052
2016-11-09T12:03:35.636Z,1032
2016-11-09T12:04:46.078Z,1088
2016-11-09T12:05:56.719Z,1124
2016-11-09T12:07:21.709Z,1140
2016-11-09T12:08:32.152Z,1252
2016-11-09T12:09:42.599Z,1292
2016-11-09T12:10:53.043Z,1364
2016-11-09T12:12:03.487Z,1336
2016-11-09T12:13:14.002Z,1260
2016-11-09T12:14:24.537Z,1172
2016-11-09T12:15:35.105Z,1204
2016-11-09T12:17:00.373Z,1244
2016-11-09T12:18:11.101Z,1412
2016-11-09T12:19:21.632Z,1488
2016-11-09T12:20:32.171Z,1336
2016-11-09T12:21:42.710Z,1400
2016-11-09T12:23:07.769Z,1412
2016-11-09T12:24:18.306Z,1456
2016-11-09T12:25:43.370Z,1432
2016-11-09T12:26:54.009Z,1560
2016-11-09T12:28:04.539Z,1804
2016-11-09T12:29:15.088Z,1908
2016-11-09T12:30:26.129Z,1712
2016-11-09T12:31:36.672Z,1728
2016-11-09T12:32:47.355Z,1808
2016-11-09T12:34:27.448Z,1984
2016-11-09T12:35:52.515Z,1964
2016-11-09T12:37:03.252Z,1980
2016-11-09T12:39:54.690Z,2164
2016-11-09T12:42:31.757Z,2168
2016-11-09T12:43:42.700Z,2112
2016-11-09T12:44:54.520Z,2220
2016-11-09T12:46:19.699Z,1852
2016-11-09T12:47:44.684Z,1736
2016-11-09T12:48:55.110Z,1960
2016-11-09T12:50:05.795Z,1944
2016-11-09T12:51:31.267Z,2136
2016-11-09T12:52:41.682Z,1848
2016-11-09T12:53:52.105Z,1940
2016-11-09T12:56:42.270Z,2068
2016-11-09T12:59:32.234Z,2316
2016-11-09T13:00:42.645Z,2384
2016-11-09T13:01:53.059Z,2212
2016-11-09T13:03:03.473Z,2188
2016-11-09T13:04:13.890Z,2296
2016-11-09T13:06:49.479Z,2476
2016-11-09T13:07:59.893Z,2500
2016-11-09T13:09:10.314Z,2532
2016-11-09T13:10:20.938Z,2396
2016-11-09T18:11:16.851Z,276
2016-11-09T18:12:27.294Z,236
2016-11-09T18:13:37.738Z,208
2016-11-09T18:14:48.182Z,192
2016-11-09T18:15:58.626Z,176
2016-11-09T18:17:09.172Z,168
2016-11-09T18:18:19.611Z,172
2016-11-09T18:19:30.060Z,176
2016-11-09T18:20:40.506Z,180
2016-11-09T18:21:50.954Z,180
2016-11-09T18:23:01.603Z,172
2016-11-09T18:24:26.630Z,160
2016-11-09T18:25:37.077Z,156
2016-11-09T18:26:47.525Z,148
2016-11-09T18:27:58.563Z,144
2016-11-09T18:29:09.007Z,140
2016-11-09T18:30:19.453Z,140
2016-11-09T18:31:29.904Z,148
2016-11-09T18:32:40.355Z,152
2016-11-09T18:33:50.909Z,168
2016-11-09T18:35:01.381Z,188
2016-11-09T18:36:11.828Z,196
2016-11-09T18:37:36.816Z,196
2016-11-09T18:38:47.460Z,204
2016-11-09T18:39:58.403Z,216
2016-11-09T18:41:08.861Z,224
2016-11-09T18:42:19.305Z,240
2016-11-09T18:43:29.749Z,256
2016-11-09T18:44:54.738Z,256
2016-11-09T18:46:05.178Z,248
2016-11-09T18:47:15.626Z,240
2016-11-09T18:48:26.072Z,232
2016-11-09T18:49:36.555Z,228
2016-11-09T18:50:47.004Z,228
2016-11-09T18:51:57.453Z,220
2016-11-09T18:53:07.894Z,216
2016-11-09T18:54:18.343Z,212
2016-11-09T18:55:28.888Z,196
2016-11-09T18:56:39.330Z,184
2016-11-09T18:57:49.849Z,176
2016-11-09T18:59:00.387Z,164
2016-11-09T19:00:10.926Z,140
2016-11-09T19:01:36.188Z,112
2016-11-09T19:02:46.765Z,92
2016-11-09T19:03:57.307Z,72
2016-11-09T19:05:07.843Z,60
2016-11-09T19:06:18.378Z,52
2016-11-09T19:07:28.911Z,48
2016-11-09T19:08:39.449Z,44
2016-11-09T19:09:49.988Z,44
2016-11-09T19:12:25.788Z,36
2016-11-09T19:13:36.330Z,36
2016-11-09T19:14:46.870Z,36
2016-11-09T19:15:57.406Z,36
2016-11-09T19:17:07.973Z,36
2016-11-09T19:18:18.507Z,32
2016-11-09T19:19:29.044Z,32
2016-11-09T19:20:39.589Z,28
2016-11-09T19:21:50.624Z,24
2016-11-09T19:23:01.372Z,20
2016-11-09T19:24:11.906Z,20
2016-11-09T19:25:22.440Z,16
2016-11-09T19:26:33.472Z,16
2016-11-09T19:27:44.007Z,16
2016-11-09T19:28:54.574Z,12
2016-11-09T19:30:05.113Z,8
